createdAt,value
2023-11-04T00:01:36.495Z,69.30
2023-11-04T00:04:03.314Z,69.35
2023-11-04T00:06:30.421Z,69.56
2023-11-04T00:08:57.021Z,69.11
2023-11-04T00:11:23.564Z,69.21
2023-11-04T00:13:50.257Z,69.33
2023-11-04T00:16:16.783Z,69.65
2023-11-04T00:18:43.385Z,69.77
2023-11-04T00:21:10.024Z,69.72
2023-11-04T00:23:36.767Z,69.76
2023-11-04T00:26:04.269Z,69.76
2023-11-04T00:28:32.546Z,69.70
2023-11-04T00:30:59.271Z,69.92
2023-11-04T00:33:26.254Z,70.38
2023-11-04T00:35:53.014Z,70.86
2023-11-04T00:38:20.615Z,70.93
2023-11-04T00:40:47.254Z,71.39
2023-11-04T00:43:13.814Z,71.42
2023-11-04T00:45:40.372Z,71.25
2023-11-04T00:48:07.180Z,71.41
2023-11-04T00:50:33.696Z,71.43
2023-11-04T00:53:00.218Z,71.29
2023-11-04T00:55:26.766Z,70.93
2023-11-04T00:57:53.320Z,71.10
2023-11-04T01:00:25.109Z,71.21
2023-11-04T01:02:54.376Z,70.93
2023-11-04T01:05:23.006Z,70.95
2023-11-04T01:07:50.491Z,70.94
2023-11-04T01:10:17.519Z,71.07
2023-11-04T01:12:44.193Z,70.12
2023-11-04T01:15:11.053Z,69.69
2023-11-04T01:17:37.654Z,69.41
2023-11-04T01:20:05.706Z,69.13
2023-11-04T01:22:32.355Z,68.85
2023-11-04T01:24:58.861Z,68.58
2023-11-04T01:27:25.428Z,68.74
2023-11-04T01:29:52.204Z,68.64
2023-11-04T01:32:19.400Z,67.97
2023-11-04T01:34:46.334Z,65.48
2023-11-04T01:37:13.013Z,65.35
2023-11-04T01:39:40.229Z,65.55
2023-11-04T01:42:07.676Z,64.71
2023-11-04T01:44:34.758Z,63.70
2023-11-04T01:47:01.805Z,63.88
2023-11-04T01:49:28.885Z,64.00
2023-11-04T01:51:56.960Z,64.06
2023-11-04T01:54:24.397Z,63.71
2023-11-04T01:56:51.351Z,63.61
2023-11-04T01:59:18.083Z,63.48
2023-11-04T02:01:47.493Z,64.02
2023-11-04T02:04:14.182Z,63.92
2023-11-04T02:06:40.903Z,63.81
2023-11-04T02:09:07.966Z,63.78
2023-11-04T02:11:34.712Z,64.02
2023-11-04T02:14:01.371Z,63.75
2023-11-04T02:16:27.924Z,64.22
2023-11-04T02:18:54.595Z,64.13
2023-11-04T02:21:22.256Z,63.89
2023-11-04T02:23:48.956Z,63.35
2023-11-04T02:26:15.617Z,63.82
2023-11-04T02:28:42.137Z,63.33
2023-11-04T02:31:09.192Z,63.31
2023-11-04T02:33:35.981Z,63.66
2023-11-04T02:36:02.716Z,63.37
2023-11-04T02:38:29.235Z,63.96
2023-11-04T02:40:55.794Z,63.76
2023-11-04T02:43:22.398Z,64.18
2023-11-04T02:45:49.547Z,63.88
2023-11-04T02:48:16.966Z,64.12
2023-11-04T02:50:43.618Z,64.34
2023-11-04T02:53:10.194Z,64.70
2023-11-04T02:55:36.731Z,64.72
2023-11-04T02:58:03.264Z,64.78
2023-11-04T03:00:29.771Z,65.23
2023-11-04T03:02:56.364Z,65.56
2023-11-04T03:05:28.218Z,65.57
2023-11-04T03:08:01.896Z,65.58
2023-11-04T03:10:28.409Z,65.93
2023-11-04T03:12:54.997Z,65.74
2023-11-04T03:15:22.043Z,65.94
2023-11-04T03:17:48.988Z,65.84
2023-11-04T03:20:16.942Z,66.10
2023-11-04T03:22:43.708Z,66.04
2023-11-04T03:25:10.863Z,66.21
2023-11-04T03:27:37.538Z,66.36
2023-11-04T03:30:05.478Z,66.01
2023-11-04T03:32:32.193Z,66.38
2023-11-04T03:34:58.962Z,66.62
2023-11-04T03:37:25.511Z,66.55
2023-11-04T03:39:54.102Z,66.43
2023-11-04T03:42:20.710Z,66.53
2023-11-04T03:44:47.253Z,67.01
2023-11-04T03:47:13.866Z,67.14
2023-11-04T03:49:40.782Z,67.18
2023-11-04T03:52:08.758Z,67.12
2023-11-04T04:01:44.521Z,68.11
2023-11-04T04:04:10.540Z,67.93
2023-11-04T04:06:36.661Z,68.64
2023-11-04T04:09:03.524Z,68.96
2023-11-04T04:11:29.818Z,69.01
2023-11-04T04:13:55.911Z,68.70
2023-11-04T04:16:23.794Z,68.82
2023-11-04T04:18:49.785Z,68.70
2023-11-04T04:21:17.070Z,68.80
2023-11-04T04:23:44.216Z,68.88
2023-11-04T04:26:10.110Z,68.65
2023-11-04T04:28:36.393Z,68.86
2023-11-04T04:31:02.320Z,68.83
2023-11-04T04:33:28.251Z,68.82
2023-11-04T04:35:54.250Z,68.66
2023-11-04T04:38:20.182Z,68.98
2023-11-04T04:40:46.051Z,68.97
2023-11-04T04:43:12.057Z,69.19
2023-11-04T04:45:37.942Z,68.86
2023-11-04T04:48:04.010Z,69.20
2023-11-04T04:50:29.834Z,69.85
2023-11-04T04:52:56.512Z,69.81
2023-11-04T04:55:22.458Z,69.85
2023-11-04T04:57:48.389Z,69.54
2023-11-04T05:00:14.864Z,69.52
2023-11-04T05:02:40.816Z,69.47
2023-11-04T05:05:07.422Z,69.52
2023-11-04T05:07:33.290Z,69.45
2023-11-04T05:09:59.395Z,69.76
2023-11-04T05:12:25.259Z,70.17
2023-11-04T05:14:51.405Z,70.55
2023-11-04T05:17:17.764Z,70.33
2023-11-04T05:19:43.615Z,70.38
2023-11-04T05:22:09.480Z,70.48
2023-11-04T05:24:35.623Z,70.61
2023-11-04T05:27:02.076Z,70.72
2023-11-04T05:29:27.914Z,70.31
2023-11-04T05:31:53.752Z,70.55
2023-11-04T05:34:19.701Z,70.78
2023-11-04T05:36:45.534Z,70.91
2023-11-04T05:39:12.707Z,71.07
2023-11-04T05:41:41.869Z,70.90
2023-11-04T05:44:08.062Z,71.05
2023-11-04T05:46:34.211Z,71.02
2023-11-04T05:49:00.089Z,70.69
2023-11-04T05:51:26.111Z,69.26
2023-11-04T05:53:52.456Z,67.58
2023-11-04T05:56:19.047Z,65.84
2023-11-04T05:58:46.711Z,65.18
2023-11-04T06:01:13.013Z,66.03
2023-11-04T06:03:38.928Z,67.18
2023-11-04T06:06:05.079Z,69.18
2023-11-04T06:08:34.181Z,70.06
2023-11-04T06:11:00.036Z,69.87
2023-11-04T06:13:25.855Z,69.52
2023-11-04T06:15:51.746Z,68.82
2023-11-04T06:18:17.712Z,68.25
2023-11-04T06:20:43.648Z,68.45
2023-11-04T06:23:09.514Z,68.71
2023-11-04T06:25:35.408Z,68.52
2023-11-04T06:28:02.382Z,68.79
2023-11-04T06:30:28.266Z,68.47
2023-11-04T06:32:54.251Z,68.28
2023-11-04T06:35:21.400Z,68.24
2023-11-04T06:37:47.236Z,67.80
2023-11-04T06:40:13.595Z,68.27
2023-11-04T06:42:39.571Z,69.11
2023-11-04T06:45:06.056Z,69.98
2023-11-04T06:47:31.990Z,70.32
2023-11-04T06:49:58.781Z,69.75
2023-11-04T06:52:24.667Z,69.31
2023-11-04T06:54:50.566Z,69.08
2023-11-04T06:57:16.480Z,68.22
2023-11-04T06:59:42.305Z,67.51
2023-11-04T07:02:08.283Z,66.33
2023-11-04T07:04:34.257Z,65.81
2023-11-04T07:07:00.170Z,66.01
2023-11-04T07:09:27.377Z,66.21
2023-11-04T07:11:53.316Z,66.61
2023-11-04T07:14:20.384Z,66.31
2023-11-04T07:16:46.913Z,65.85
2023-11-04T07:19:14.253Z,66.73
2023-11-04T07:21:41.897Z,66.85
2023-11-04T07:24:07.911Z,65.79
2023-11-04T07:26:33.764Z,64.01
2023-11-04T07:29:00.109Z,62.10
2023-11-04T07:31:27.144Z,61.25
2023-11-04T07:33:53.185Z,61.30
2023-11-04T07:36:26.378Z,60.90
2023-11-04T07:38:53.190Z,59.59
2023-11-04T07:41:20.004Z,58.61
2023-11-04T07:43:45.940Z,59.05
2023-11-04T07:46:11.840Z,60.04
2023-11-04T07:48:37.751Z,60.58
2023-11-04T07:51:04.019Z,60.76
2023-11-04T07:53:30.040Z,60.33
2023-11-04T07:55:55.945Z,60.05
2023-11-04T07:58:21.821Z,59.91
2023-11-04T08:00:49.389Z,59.24
2023-11-04T08:03:18.641Z,58.62
2023-11-04T08:05:44.811Z,58.54
2023-11-04T08:08:12.579Z,58.50
2023-11-04T08:10:38.710Z,57.12
2023-11-04T08:13:04.750Z,57.59
2023-11-04T08:15:30.822Z,56.42
2023-11-04T08:17:59.896Z,56.81
2023-11-04T08:20:26.925Z,56.46
2023-11-04T08:22:55.741Z,55.76
2023-11-04T08:25:22.607Z,55.71
2023-11-04T08:27:48.586Z,55.46
2023-11-04T08:30:14.640Z,54.73
2023-11-04T08:32:41.320Z,54.59
2023-11-04T08:35:07.374Z,53.90
2023-11-04T08:37:35.050Z,53.26
2023-11-04T08:40:01.092Z,53.17
2023-11-04T08:42:27.012Z,53.14
2023-11-04T08:44:54.028Z,52.81
2023-11-04T08:47:20.344Z,54.07
2023-11-04T08:49:46.274Z,53.39
2023-11-04T08:52:12.569Z,53.93
2023-11-04T08:54:40.786Z,52.68
2023-11-04T08:57:06.856Z,52.50
2023-11-04T08:59:34.179Z,52.92
2023-11-04T09:02:00.797Z,52.48
2023-11-04T09:04:28.772Z,51.97
2023-11-04T09:06:56.286Z,51.65
2023-11-04T09:09:22.718Z,52.64
2023-11-04T09:11:49.262Z,52.27
2023-11-04T09:14:15.718Z,52.69
2023-11-04T09:16:42.625Z,51.28
2023-11-04T09:19:08.663Z,50.96
2023-11-04T09:21:36.029Z,50.98
2023-11-04T09:24:01.884Z,50.39
2023-11-04T09:26:27.876Z,50.65
2023-11-04T09:28:53.938Z,50.01
2023-11-04T09:31:19.912Z,48.59
2023-11-04T09:33:46.020Z,47.75
2023-11-04T09:36:12.673Z,48.66
2023-11-04T09:38:38.832Z,48.16
2023-11-04T09:41:05.698Z,48.59
2023-11-04T09:43:32.256Z,48.45
2023-11-04T09:46:00.999Z,48.09
2023-11-04T09:48:26.915Z,48.03
2023-11-04T09:51:00.223Z,47.55
2023-11-04T09:53:27.996Z,47.45
2023-11-04T09:55:54.502Z,47.63
2023-11-04T09:58:24.590Z,48.42
2023-11-04T10:00:51.712Z,48.78
2023-11-04T10:03:18.023Z,49.37
2023-11-04T10:05:44.801Z,49.55
2023-11-04T10:08:11.595Z,49.81
2023-11-04T10:10:37.563Z,50.07
2023-11-04T10:13:05.483Z,49.25
2023-11-04T10:15:31.763Z,49.94
2023-11-04T10:18:01.336Z,49.94
2023-11-04T10:20:27.457Z,50.51
2023-11-04T10:22:54.041Z,50.67
2023-11-04T10:25:20.528Z,50.33
2023-11-04T10:27:46.852Z,50.54
2023-11-04T10:30:12.974Z,50.51
2023-11-04T10:32:40.046Z,49.78
2023-11-04T10:35:12.720Z,49.06
2023-11-04T10:37:45.201Z,47.57
2023-11-04T10:40:14.557Z,46.93
2023-11-04T10:42:50.339Z,46.31
2023-11-04T10:45:19.146Z,46.84
2023-11-04T10:47:55.276Z,47.38
2023-11-04T10:50:37.137Z,46.45
2023-11-04T10:53:12.396Z,46.04
2023-11-04T10:55:56.370Z,46.07
2023-11-04T10:58:31.894Z,45.18
2023-11-04T11:00:59.960Z,45.74
2023-11-04T11:03:28.040Z,46.87
2023-11-04T11:05:56.265Z,46.83
2023-11-04T11:08:24.309Z,48.01
2023-11-04T11:11:01.085Z,48.93
2023-11-04T11:13:33.052Z,49.43
2023-11-04T11:15:59.365Z,49.36
2023-11-04T11:18:26.881Z,49.80
2023-11-04T11:20:52.718Z,49.00
2023-11-04T11:23:27.192Z,50.01
2023-11-04T11:26:06.137Z,51.05
2023-11-04T11:28:42.675Z,50.42
2023-11-04T11:31:14.003Z,50.10
2023-11-04T11:33:42.470Z,49.37
2023-11-04T11:36:16.325Z,50.09
2023-11-04T11:38:45.608Z,49.48
2023-11-04T11:41:16.581Z,49.40
2023-11-04T11:43:46.565Z,49.35
2023-11-04T11:46:12.911Z,48.28
2023-11-04T11:48:40.734Z,48.05
2023-11-04T11:51:16.885Z,48.62
2023-11-04T11:53:48.097Z,47.35
2023-11-04T11:56:14.675Z,47.17
2023-11-04T11:58:40.831Z,47.80
2023-11-04T12:01:08.831Z,47.50
2023-11-04T12:03:36.537Z,47.22
2023-11-04T12:06:03.165Z,47.64
2023-11-04T12:08:29.104Z,47.60
2023-11-04T12:10:55.065Z,47.60
2023-11-04T12:13:21.299Z,47.88
2023-11-04T12:15:47.504Z,47.44
2023-11-04T12:18:14.172Z,47.76
2023-11-04T12:20:44.976Z,47.16
2023-11-04T12:23:12.899Z,48.45
2023-11-04T12:25:41.128Z,49.06
2023-11-04T12:28:08.777Z,48.49
2023-11-04T12:30:35.158Z,48.66
2023-11-04T12:33:02.727Z,48.84
2023-11-04T12:35:32.214Z,49.53
2023-11-04T12:38:01.009Z,49.76
2023-11-04T12:40:31.634Z,49.69
2023-11-04T12:43:02.405Z,48.87
2023-11-04T12:45:29.306Z,49.11
2023-11-04T12:47:55.553Z,48.88
2023-11-04T12:50:22.070Z,49.40
2023-11-04T12:52:47.973Z,50.10
2023-11-04T12:55:14.950Z,49.22
2023-11-04T12:57:41.097Z,49.03
2023-11-04T13:00:11.147Z,50.48
2023-11-04T13:02:37.354Z,50.38
2023-11-04T13:05:04.469Z,50.57
2023-11-04T13:07:30.388Z,49.19
2023-11-04T13:09:56.298Z,48.97
2023-11-04T13:12:22.416Z,49.96
2023-11-04T13:14:48.321Z,50.61
2023-11-04T13:17:14.159Z,51.41
2023-11-04T13:19:40.022Z,51.99
2023-11-04T13:22:06.119Z,52.32
2023-11-04T13:24:32.030Z,52.30
2023-11-04T13:26:58.907Z,52.35
2023-11-04T13:29:24.965Z,51.65
2023-11-04T13:31:50.941Z,52.13
2023-11-04T13:34:16.930Z,52.51
2023-11-04T13:36:43.770Z,53.02
2023-11-04T13:39:12.198Z,53.52
2023-11-04T13:41:39.339Z,54.04
2023-11-04T13:44:05.636Z,54.38
2023-11-04T13:46:31.683Z,54.49
2023-11-04T13:48:57.548Z,54.41
2023-11-04T13:51:24.579Z,54.15
2023-11-04T13:53:50.581Z,54.20
2023-11-04T13:56:16.460Z,54.65
2023-11-04T13:58:42.777Z,54.78
2023-11-04T14:01:08.774Z,55.23
2023-11-04T14:03:35.138Z,55.59
2023-11-04T14:06:01.644Z,56.71
2023-11-04T14:08:27.581Z,57.82
2023-11-04T14:10:54.050Z,58.37
2023-11-04T14:13:23.713Z,58.60
2023-11-04T14:15:52.464Z,59.34
2023-11-04T14:18:18.353Z,60.07
2023-11-04T14:20:44.873Z,60.72
2023-11-04T14:23:10.939Z,61.15
2023-11-04T14:25:36.952Z,61.45
2023-11-04T14:28:03.198Z,61.79
2023-11-04T14:30:29.138Z,62.24
2023-11-04T14:32:55.313Z,61.65
2023-11-04T14:35:21.208Z,61.81
2023-11-04T14:37:47.073Z,62.10
2023-11-04T14:40:19.368Z,62.85
2023-11-04T14:42:47.698Z,63.45
2023-11-04T14:45:14.132Z,63.75
2023-11-04T14:47:40.508Z,64.25
2023-11-04T14:50:07.645Z,64.40
2023-11-04T14:52:34.106Z,65.11
2023-11-04T14:55:00.243Z,65.68
2023-11-04T14:57:26.591Z,65.74
2023-11-04T14:59:53.425Z,66.01
2023-11-04T15:02:20.041Z,66.29
2023-11-04T15:04:46.764Z,66.80
2023-11-04T15:07:13.013Z,66.64
2023-11-04T15:09:40.470Z,66.70
2023-11-04T15:12:11.647Z,66.81
2023-11-04T15:14:40.693Z,67.08
2023-11-04T15:17:09.659Z,67.42
2023-11-04T15:19:38.343Z,67.48
2023-11-04T15:22:05.070Z,67.52
2023-11-04T15:24:30.987Z,67.80
2023-11-04T15:26:56.893Z,68.05
2023-11-04T15:29:22.874Z,68.52
2023-11-04T15:31:49.212Z,68.48
2023-11-04T15:34:15.264Z,68.23
2023-11-04T15:36:41.408Z,67.98
2023-11-04T15:39:07.426Z,68.10
2023-11-04T15:41:36.457Z,68.35
2023-11-04T15:44:03.452Z,68.86
2023-11-04T15:46:29.348Z,68.69
2023-11-04T15:48:55.217Z,68.29
2023-11-04T15:51:21.273Z,67.96
2023-11-04T15:53:47.309Z,68.51
2023-11-04T15:56:13.230Z,68.86
2023-11-04T15:58:39.186Z,69.07
2023-11-04T16:01:05.161Z,68.86
2023-11-04T16:03:31.060Z,68.71
2023-11-04T16:05:56.968Z,68.09
2023-11-04T16:08:23.019Z,68.67
2023-11-04T16:10:48.982Z,69.10
2023-11-04T16:13:15.376Z,69.40
2023-11-04T16:15:41.455Z,69.66
2023-11-04T16:18:07.432Z,69.78
2023-11-04T16:20:33.954Z,70.08
2023-11-04T16:23:00.960Z,70.36
2023-11-04T16:25:27.462Z,70.69
2023-11-04T16:27:53.331Z,70.65
2023-11-04T16:30:19.232Z,70.57
2023-11-04T16:32:46.222Z,70.43
2023-11-04T16:35:12.246Z,70.74
2023-11-04T16:37:38.079Z,70.93
2023-11-04T16:40:04.461Z,71.00
2023-11-04T16:42:30.916Z,71.04
2023-11-04T16:44:56.803Z,70.34
2023-11-04T16:47:23.312Z,70.07
2023-11-04T16:49:49.649Z,70.10
2023-11-04T16:52:15.524Z,70.53
2023-11-04T16:54:44.145Z,70.76
2023-11-04T16:57:09.991Z,71.06
2023-11-04T16:59:35.823Z,71.56
2023-11-04T17:02:02.622Z,72.02
2023-11-04T17:04:28.728Z,72.80
2023-11-04T17:06:54.619Z,73.65
2023-11-04T17:09:20.464Z,73.41
2023-11-04T17:11:46.317Z,73.81
2023-11-04T17:14:12.156Z,73.98
2023-11-04T17:16:38.096Z,74.13
2023-11-04T17:19:04.266Z,74.15
2023-11-04T17:21:30.901Z,73.74
2023-11-04T17:23:56.930Z,73.78
2023-11-04T17:26:22.873Z,73.72
2023-11-04T17:28:48.789Z,74.02
2023-11-04T17:31:14.810Z,73.91
2023-11-04T17:33:40.757Z,74.06
2023-11-04T17:36:08.747Z,74.56
2023-11-04T17:38:34.718Z,75.10
2023-11-04T17:41:00.602Z,75.35
2023-11-04T17:43:28.980Z,75.33
2023-11-04T17:45:55.381Z,75.30
2023-11-04T17:48:22.619Z,75.73
2023-11-04T17:50:48.713Z,76.22
2023-11-04T17:53:17.232Z,76.49
2023-11-04T17:55:44.658Z,76.68
2023-11-04T17:58:10.784Z,77.16
2023-11-04T18:00:36.641Z,77.04
2023-11-04T18:03:02.733Z,77.07
2023-11-04T18:05:28.601Z,77.09
2023-11-04T18:07:54.482Z,77.94
2023-11-04T18:10:21.097Z,78.01
2023-11-04T18:12:47.582Z,78.10
2023-11-04T18:15:13.651Z,78.07
2023-11-04T18:17:39.662Z,78.16
2023-11-04T18:20:05.993Z,78.54
2023-11-04T18:22:31.940Z,78.84
2023-11-04T18:24:57.851Z,78.71
2023-11-04T18:27:35.196Z,78.39
2023-11-04T18:30:09.984Z,78.87
2023-11-04T18:32:35.896Z,79.53
2023-11-04T18:35:02.701Z,79.83
2023-11-04T18:37:28.571Z,79.80
2023-11-04T18:39:54.440Z,79.65
2023-11-04T18:42:20.279Z,79.81
2023-11-04T18:44:47.538Z,79.88
2023-11-04T18:47:13.652Z,80.13
2023-11-04T18:49:39.718Z,79.78
2023-11-04T18:52:07.826Z,80.45
2023-11-04T18:54:33.712Z,80.71
2023-11-04T18:56:59.698Z,80.64
2023-11-04T18:59:28.470Z,80.17
2023-11-04T19:01:54.554Z,80.08
2023-11-04T19:04:20.596Z,80.37
2023-11-04T19:06:46.658Z,80.81
2023-11-04T19:09:12.604Z,81.14
2023-11-04T19:11:39.088Z,81.38
2023-11-04T19:14:04.954Z,81.67
2023-11-04T19:16:31.305Z,81.31
2023-11-04T19:18:57.326Z,81.67
2023-11-04T19:21:26.327Z,81.33
2023-11-04T19:23:52.140Z,81.58
2023-11-04T19:26:18.154Z,82.02
2023-11-04T19:28:46.803Z,82.26
2023-11-04T19:31:15.882Z,82.12
2023-11-04T19:33:41.892Z,81.65
2023-11-04T19:36:08.310Z,81.45
2023-11-04T19:38:34.179Z,81.49
2023-11-04T19:41:00.410Z,81.43
2023-11-04T19:43:26.447Z,81.23
2023-11-04T19:45:52.321Z,80.73
2023-11-04T19:48:18.287Z,80.26
2023-11-04T19:50:44.636Z,80.19
2023-11-04T19:53:10.615Z,80.17
2023-11-04T19:55:36.480Z,80.54
2023-11-04T19:58:04.540Z,80.77
2023-11-04T20:00:33.709Z,81.48
2023-11-04T20:03:00.017Z,81.63
2023-11-04T20:05:26.236Z,80.78
2023-11-04T20:07:54.470Z,80.81
2023-11-04T20:10:20.533Z,81.10
2023-11-04T20:12:46.390Z,81.00
2023-11-04T20:15:12.263Z,80.39
2023-11-04T20:17:38.160Z,79.99
2023-11-04T20:20:06.846Z,79.90
2023-11-04T20:22:32.881Z,79.83
2023-11-04T20:24:58.818Z,79.89
2023-11-04T20:27:26.500Z,79.43
2023-11-04T20:29:52.438Z,79.48
2023-11-04T20:32:18.394Z,80.15
2023-11-04T20:34:44.458Z,80.42
2023-11-04T20:37:10.342Z,80.40
2023-11-04T20:39:36.352Z,80.13
2023-11-04T20:42:04.013Z,80.09
2023-11-04T20:44:30.149Z,80.46
2023-11-04T20:46:58.879Z,80.73
2023-11-04T20:49:24.938Z,80.98
2023-11-04T20:51:51.264Z,80.81
2023-11-04T20:54:17.196Z,80.95
2023-11-04T20:56:43.363Z,81.04
2023-11-04T20:59:10.384Z,80.98
2023-11-04T21:01:40.721Z,80.17
2023-11-04T21:04:06.598Z,80.22
2023-11-04T21:06:33.160Z,80.59
2023-11-04T21:08:59.092Z,80.50
2023-11-04T21:11:25.137Z,80.05
2023-11-04T21:13:51.155Z,79.96
2023-11-04T21:16:17.133Z,80.18
2023-11-04T21:18:43.526Z,80.48
2023-11-04T21:21:12.955Z,80.33
2023-11-04T21:23:39.283Z,80.22
2023-11-04T21:26:05.626Z,80.41
2023-11-04T21:28:32.095Z,80.65
2023-11-04T21:30:58.420Z,80.56
2023-11-04T21:33:25.084Z,80.48
2023-11-04T21:35:51.864Z,80.71
2023-11-04T21:38:18.934Z,80.95
2023-11-04T21:40:45.384Z,80.87
2023-11-04T21:43:11.686Z,80.46
2023-11-04T21:45:38.014Z,80.76
2023-11-04T21:48:04.418Z,81.17
2023-11-04T21:50:30.396Z,81.24
2023-11-04T21:52:56.971Z,81.00
2023-11-04T21:55:24.283Z,81.20
2023-11-04T21:57:51.283Z,81.46
2023-11-04T22:00:17.989Z,81.75
2023-11-04T22:02:43.945Z,81.33
2023-11-04T22:05:11.314Z,81.42
2023-11-04T22:07:39.841Z,81.63
2023-11-04T22:10:06.232Z,81.64
2023-11-04T22:12:32.985Z,81.46
2023-11-04T22:14:59.037Z,81.24
2023-11-04T22:17:25.889Z,81.43
2023-11-04T22:19:52.066Z,81.48
2023-11-04T22:22:18.447Z,81.52
2023-11-04T22:24:44.458Z,81.22
2023-11-04T22:27:10.532Z,82.01
2023-11-04T22:29:37.117Z,82.76
2023-11-04T22:32:04.062Z,82.78
2023-11-04T22:34:33.627Z,82.80
2023-11-04T22:36:59.525Z,83.71
2023-11-04T22:39:28.147Z,83.78
2023-11-04T22:41:54.151Z,83.69
2023-11-04T22:44:20.146Z,83.48
2023-11-04T22:46:46.293Z,83.41
2023-11-04T22:49:12.926Z,83.08
2023-11-04T22:51:42.442Z,82.77
2023-11-04T22:54:08.655Z,83.47
2023-11-04T22:56:34.966Z,84.25
2023-11-04T22:59:03.645Z,84.35
2023-11-04T23:01:29.907Z,84.02
2023-11-04T23:03:56.414Z,84.03
2023-11-04T23:06:25.255Z,83.99
2023-11-04T23:08:52.266Z,83.95
2023-11-04T23:11:18.153Z,83.72
2023-11-04T23:13:43.996Z,84.17
2023-11-04T23:16:10.096Z,84.45
2023-11-04T23:18:36.071Z,84.96
2023-11-04T23:21:01.996Z,84.87
2023-11-04T23:23:27.889Z,84.46
2023-11-04T23:25:54.510Z,84.73
2023-11-04T23:28:20.413Z,85.73
2023-11-04T23:30:50.596Z,84.84
2023-11-04T23:33:16.489Z,84.64
2023-11-04T23:35:42.463Z,85.27
2023-11-04T23:38:09.059Z,85.44
2023-11-04T23:40:35.246Z,84.73
2023-11-04T23:43:01.138Z,84.51
2023-11-04T23:45:28.034Z,84.28
2023-11-04T23:47:54.773Z,84.58
2023-11-04T23:50:20.616Z,84.68
2023-11-04T23:52:46.523Z,84.19
2023-11-04T23:55:12.383Z,84.10
2023-11-04T23:57:38.212Z,84.50
